Terminal Aerodrome Forecast
Issued by NWS

Home | Current Version | Previous Version | Text Only | Print | Product List | Glossary On
Versions: 1 2 3 4 5 6 7 8 9 10 11 12 13 14 15 16 17
000
FTUS46 KSGX 241737
TAFSNA
TAF
KSNA 241737Z 2418/2518 VRB06KT 4SM HZ BKN010
     FM241900 22006KT 6SM HZ SCT012
     FM242000 22008KT P6SM FEW012 SCT150
     FM250300 VRB06KT P6SM SCT006
     FM250900 VRB04KT P6SM BKN006
     FM251100 VRB04KT 1 1/2SM BR OVC003
     FM251500 VRB04KT 2SM BR BKN006
     FM251600 VRB04KT 5SM HZ SCT008=

USA.gov is the U.S. government's official web portal to all federal, state and local government web resources and services.